createdAt,value
2022-11-22T00:00:20.440Z,9.30
2022-11-22T00:05:22.793Z,9.20
2022-11-22T00:10:25.210Z,9.20
2022-11-22T00:15:27.564Z,9.10
2022-11-22T00:20:30.018Z,9.10
2022-11-22T00:25:32.811Z,9.00
2022-11-22T00:30:35.167Z,9.10
2022-11-22T00:35:38.088Z,9.00
2022-11-22T00:40:40.648Z,9.10
2022-11-22T00:45:42.975Z,8.90
2022-11-22T00:50:45.340Z,8.90
2022-11-22T00:55:47.674Z,8.70
2022-11-22T01:00:55.083Z,8.70
2022-11-22T01:05:58.988Z,8.80
2022-11-22T01:11:02.168Z,8.80
2022-11-22T01:16:07.774Z,8.80
2022-11-22T01:21:10.163Z,8.60
2022-11-22T01:26:12.692Z,8.70
2022-11-22T01:31:14.993Z,8.60
2022-11-22T01:36:17.428Z,8.60
2022-11-22T01:41:20.029Z,8.50
2022-11-22T01:46:38.091Z,8.60
2022-11-22T01:51:43.935Z,8.60
2022-11-22T01:56:52.178Z,8.50
2022-11-22T02:01:54.711Z,8.50
2022-11-22T02:07:07.484Z,8.60
2022-11-22T02:12:11.045Z,8.50
2022-11-22T02:17:13.415Z,8.40
2022-11-22T02:22:43.495Z,8.30
2022-11-22T02:27:46.240Z,8.30
2022-11-22T02:32:48.523Z,8.10
2022-11-22T02:38:12.955Z,8.30
2022-11-22T02:43:22.542Z,8.40
2022-11-22T02:48:25.367Z,8.30
2022-11-22T02:53:30.275Z,8.10
2022-11-22T02:58:32.704Z,8.30
2022-11-22T03:03:35.144Z,8.20
2022-11-22T03:08:37.538Z,8.30
2022-11-22T03:13:40.200Z,8.20
2022-11-22T03:18:42.480Z,8.00
2022-11-22T03:23:44.785Z,8.00
2022-11-22T03:28:47.042Z,7.90
2022-11-22T03:33:50.495Z,8.10
2022-11-22T03:38:52.811Z,8.10
2022-11-22T03:43:55.186Z,8.10
2022-11-22T03:48:57.469Z,8.10
2022-11-22T03:53:59.805Z,8.10
2022-11-22T03:59:02.058Z,8.20
2022-11-22T04:04:04.464Z,8.30
2022-11-22T04:09:09.320Z,8.10
2022-11-22T04:14:30.742Z,8.00
2022-11-22T04:19:33.153Z,8.40
2022-11-22T04:24:54.475Z,8.40
2022-11-22T04:29:56.761Z,8.40
2022-11-22T04:34:59.046Z,8.40
2022-11-22T04:40:01.389Z,8.40
2022-11-22T04:45:03.987Z,8.40
2022-11-22T04:50:27.977Z,8.40
2022-11-22T04:55:30.357Z,8.40
2022-11-22T05:00:33.144Z,8.20
2022-11-22T05:05:40.968Z,8.20
2022-11-22T05:10:58.500Z,8.10
2022-11-22T05:16:01.957Z,8.10
2022-11-22T05:21:12.983Z,8.20
2022-11-22T05:26:15.492Z,8.10
2022-11-22T05:31:23.591Z,8.30
2022-11-22T05:36:26.063Z,8.00
2022-11-22T05:41:28.638Z,8.00
2022-11-22T05:46:31.233Z,7.80
2022-11-22T05:51:34.932Z,7.70
2022-11-22T05:56:37.600Z,7.70
2022-11-22T06:01:40.437Z,7.70
2022-11-22T06:06:42.810Z,7.80
2022-11-22T06:11:45.197Z,7.70
2022-11-22T06:16:47.708Z,7.70
2022-11-22T06:21:50.405Z,7.70
2022-11-22T06:26:52.674Z,8.00
2022-11-22T06:31:56.795Z,8.10
2022-11-22T06:37:02.705Z,8.10
2022-11-22T06:42:05.108Z,8.30
2022-11-22T06:47:08.215Z,8.30
2022-11-22T06:52:10.605Z,8.10
2022-11-22T06:57:14.624Z,8.10
2022-11-22T07:02:16.975Z,8.20
2022-11-22T07:07:19.393Z,8.00
2022-11-22T07:12:21.753Z,8.00
2022-11-22T07:17:24.081Z,7.90
2022-11-22T07:22:26.628Z,8.00
2022-11-22T07:27:28.960Z,7.90
2022-11-22T07:32:31.247Z,7.90
2022-11-22T07:37:33.545Z,7.90
2022-11-22T07:42:35.844Z,7.90
2022-11-22T07:47:38.524Z,7.70
2022-11-22T07:52:40.846Z,7.50
2022-11-22T07:57:43.280Z,7.50
2022-11-22T08:02:46.345Z,7.60
2022-11-22T08:07:50.833Z,7.60
2022-11-22T08:12:53.281Z,7.50
2022-11-22T08:17:55.698Z,7.70
2022-11-22T08:22:58.122Z,7.60
2022-11-22T08:28:00.564Z,7.80
2022-11-22T08:33:02.933Z,7.70
2022-11-22T08:38:05.346Z,7.70
2022-11-22T08:43:07.683Z,7.50
2022-11-22T08:48:10.000Z,7.60
2022-11-22T08:53:12.640Z,7.80
2022-11-22T08:58:15.284Z,7.90
2022-11-22T09:03:17.787Z,7.90
2022-11-22T09:13:23.638Z,8.20
2022-11-22T09:18:26.023Z,8.20
2022-11-22T09:23:28.501Z,7.90
2022-11-22T09:28:31.069Z,8.00
2022-11-22T09:33:35.003Z,8.00
2022-11-22T09:38:38.028Z,8.00
2022-11-22T09:43:54.562Z,8.10
2022-11-22T09:49:29.375Z,8.30
2022-11-22T09:55:07.073Z,8.30
2022-11-22T10:00:30.213Z,8.40
2022-11-22T10:05:43.062Z,8.30
2022-11-22T10:10:45.539Z,8.60
2022-11-22T10:16:05.718Z,8.70
2022-11-22T10:21:13.814Z,8.80
2022-11-22T10:26:35.061Z,8.90
2022-11-22T10:31:43.722Z,9.00
2022-11-22T10:36:51.401Z,9.10
2022-11-22T10:42:00.139Z,9.10
2022-11-22T10:47:17.550Z,9.20
2022-11-22T10:52:38.026Z,11.00
2022-11-22T10:58:12.514Z,9.40
2022-11-22T11:03:30.145Z,9.20
2022-11-22T11:09:12.169Z,9.10
2022-11-22T11:14:18.806Z,9.00
2022-11-22T11:19:24.024Z,9.00
2022-11-22T11:24:30.301Z,8.90
2022-11-22T11:29:50.862Z,8.90
2022-11-22T11:35:01.151Z,9.20
2022-11-22T11:40:04.924Z,9.40
2022-11-22T11:45:30.559Z,9.40
2022-11-22T11:50:33.026Z,9.40
2022-11-22T11:55:37.063Z,9.30
2022-11-22T12:00:40.412Z,9.50
2022-11-22T12:05:42.944Z,9.40
2022-11-22T12:11:16.146Z,9.30
2022-11-22T12:16:29.292Z,9.50
2022-11-22T12:21:50.720Z,9.50
2022-11-22T12:26:55.577Z,9.60
2022-11-22T12:32:07.397Z,9.70
2022-11-22T12:37:29.126Z,9.60
2022-11-22T12:42:46.407Z,9.60
2022-11-22T12:47:50.795Z,9.60
2022-11-22T12:53:07.561Z,9.50
2022-11-22T12:58:21.075Z,9.40
2022-11-22T13:03:38.976Z,9.40
2022-11-22T13:08:51.616Z,9.60
2022-11-22T13:14:23.503Z,9.50
2022-11-22T13:23:55.418Z,9.50
2022-11-22T13:28:58.938Z,9.30
2022-11-22T13:34:03.045Z,9.40
2022-11-22T13:39:12.345Z,9.30
2022-11-22T13:44:38.976Z,9.30
2022-11-22T13:49:49.178Z,9.40
2022-11-22T13:54:52.998Z,9.40
2022-11-22T14:00:13.939Z,9.50
2022-11-22T14:05:26.231Z,9.50
2022-11-22T14:11:01.774Z,9.30
2022-11-22T14:16:07.660Z,9.20
2022-11-22T14:21:42.257Z,9.20
2022-11-22T14:27:02.435Z,9.30
2022-11-22T14:32:18.366Z,9.30
2022-11-22T14:37:42.553Z,9.50
2022-11-22T14:42:57.303Z,9.40
2022-11-22T14:48:13.770Z,9.50
2022-11-22T14:53:41.366Z,9.50
2022-11-22T14:59:01.454Z,9.30
2022-11-22T15:09:21.645Z,9.30
2022-11-22T15:10:02.861Z,9.10
2022-11-22T15:58:50.332Z,9.10
2022-11-22T16:03:57.674Z,9.20
2022-11-22T16:09:06.247Z,9.40
2022-11-22T16:14:41.330Z,9.40
2022-11-22T16:19:43.575Z,9.60
2022-11-22T16:24:45.854Z,9.70
2022-11-22T16:29:51.866Z,9.60
2022-11-22T16:35:03.223Z,9.40
2022-11-22T16:40:16.613Z,9.50
2022-11-22T16:45:21.308Z,9.60
2022-11-22T16:50:23.683Z,9.70
2022-11-22T16:55:26.109Z,9.70
2022-11-22T17:00:28.484Z,9.80
2022-11-22T17:05:31.933Z,9.90
2022-11-22T17:10:34.336Z,10.10
2022-11-22T17:15:38.381Z,10.10
2022-11-22T17:20:40.647Z,9.80
2022-11-22T17:25:43.029Z,9.80
2022-11-22T17:30:45.365Z,9.90
2022-11-22T17:35:47.742Z,9.80
2022-11-22T17:40:57.832Z,9.90
2022-11-22T17:46:00.188Z,9.80
2022-11-22T17:51:10.357Z,10.00
2022-11-22T17:56:12.980Z,9.90
2022-11-22T18:01:18.269Z,10.00
2022-11-22T18:06:21.480Z,10.00
2022-11-22T18:11:23.758Z,10.10
2022-11-22T18:16:29.898Z,10.00
2022-11-22T18:21:33.993Z,9.90
2022-11-22T18:26:40.754Z,9.90
2022-11-22T18:31:53.964Z,10.00
2022-11-22T18:37:05.021Z,10.00
2022-11-22T18:42:13.037Z,9.90
2022-11-22T18:47:15.803Z,9.90
2022-11-22T18:52:18.360Z,10.00
2022-11-22T18:57:20.780Z,10.00
2022-11-22T19:02:27.313Z,9.90
2022-11-22T19:07:30.240Z,9.90
2022-11-22T19:12:32.858Z,9.80
2022-11-22T19:17:35.584Z,10.00
2022-11-22T19:22:39.558Z,9.90
2022-11-22T19:27:41.942Z,10.20
2022-11-22T19:32:44.417Z,10.00
2022-11-22T19:37:46.947Z,9.80
2022-11-22T19:42:49.403Z,9.80
2022-11-22T19:47:52.028Z,9.90
2022-11-22T19:52:54.513Z,9.80
2022-11-22T19:57:57.243Z,9.90
2022-11-22T20:02:59.600Z,9.80
2022-11-22T20:08:02.011Z,9.70
2022-11-22T20:13:08.047Z,9.70
2022-11-22T20:18:12.784Z,9.80
2022-11-22T20:23:15.039Z,9.80
2022-11-22T20:28:17.606Z,9.80
2022-11-22T20:33:23.286Z,9.80
2022-11-22T20:38:25.565Z,9.80
2022-11-22T20:43:30.223Z,9.80
2022-11-22T20:48:33.550Z,9.80
2022-11-22T20:53:36.450Z,9.80
2022-11-22T20:58:38.869Z,9.60
2022-11-22T21:03:41.426Z,9.70
2022-11-22T21:08:45.893Z,9.80
2022-11-22T21:13:49.140Z,9.60
2022-11-22T21:18:55.546Z,9.60
2022-11-22T21:24:00.151Z,9.40
2022-11-22T21:29:04.101Z,9.40
2022-11-22T21:34:06.445Z,9.50
2022-11-22T21:39:08.788Z,9.50
2022-11-22T21:44:11.324Z,9.50
2022-11-22T21:49:13.718Z,9.40
2022-11-22T21:54:16.071Z,9.40
2022-11-22T21:59:18.386Z,9.40
2022-11-22T22:04:20.752Z,9.30
2022-11-22T22:09:23.120Z,9.40
2022-11-22T22:14:26.480Z,9.50
2022-11-22T22:19:29.084Z,9.30
2022-11-22T22:24:33.763Z,9.40
2022-11-22T22:29:36.039Z,9.40
2022-11-22T22:34:38.378Z,9.40
2022-11-22T22:39:40.658Z,9.50
2022-11-22T22:44:43.006Z,9.50
2022-11-22T22:49:45.380Z,9.50
2022-11-22T22:54:47.671Z,9.70
2022-11-22T22:59:50.005Z,9.60
2022-11-22T23:04:52.292Z,9.30
2022-11-22T23:09:54.528Z,9.50
2022-11-22T23:14:56.890Z,9.60
2022-11-22T23:19:59.161Z,9.70
2022-11-22T23:25:01.429Z,9.50
2022-11-22T23:30:04.388Z,9.50
2022-11-22T23:35:07.280Z,9.30
2022-11-22T23:40:10.238Z,9.60
2022-11-22T23:45:12.536Z,9.50
2022-11-22T23:50:15.151Z,9.60
2022-11-22T23:55:17.527Z,9.40
